Lubbock, TX

5:36 AM CDT on May 30, 2015 (GMT -0500)
Carlisle Park | | Change Station
CLOSE
Current Station
Personal Weather Station
Location: Lubbock, TX
Elevation: 3215 ft
Nearby Weather Stations

Elev 3215 ft 33.57 °N, 101.87 °W | Updated 7 seconds ago

Overcast
Overcast
58.8 °F
Feels Like 58.8 °F
N
0.7
Wind Variable Wind from SW
Gusts 1.6 mph

Today
High -- | Low -- °F
--% Chance of Precip.
Yesterday
High -- | Low -- °F
Precip. -- in
6:38 AM 8:51 PM
Waxing Gibbous, 89% visible
Pressure 30.03 in
Visibility 10.0 miles
Clouds Scattered Clouds 12000 ft
Mostly Cloudy 16000 ft
Mostly Cloudy 22000 ft
Dew Point 54 °F
Humidity 84%
Rainfall 0.07 in
Snow Depth Not available.
UV 0 out of 12
Pollen 3.60 out of 12
Air Quality Not available.
Flu Activity Local Activity
METAR KLBB 300953Z 35004KT 10SM SCT120 BKN160 BKN220 14/12 A3015 RMK AO2 SLP168 OCNL LTGCG DSNT SW CB DSNT SW MOV SE T01440122

More Conditions Fewer Conditions

Pressure 30.03 in
Visibility 10.0 miles
Clouds Scattered Clouds 12000 ft
Mostly Cloudy 16000 ft
Mostly Cloudy 22000 ft
Dew Point 54 °F
Humidity 84%
Rainfall 0.07 in
Snow Depth Not available.
UV 0 out of 12
Pollen 3.60 out of 12
Air Quality Not available.
Flu Activity Local Activity
METAR KLBB 300953Z 35004KT 10SM SCT120 BKN160 BKN220 14/12 A3015 RMK AO2 SLP168 OCNL LTGCG DSNT SW CB DSNT SW MOV SE T01440122

More Conditions Fewer Conditions

10-Day Weather Forecast

Almanac

Astronomy

May. 30, 2015 Rise Set
Actual Time
Civil Twilight
Nautical Twilight
Astronomical Twilight
Moon
Length of Visible Light
Length of Day
Tomorrow will be .
, % of the Moon is Illuminated

Today's Extremes

State Highs State Lows

Community

WunderPhotos

Upload Photos

1,825,478 photos uploaded!

WunderBlogs® & News

Nearby

Air Quality

  Air Quality AQ Index Pollutant
Not available.

Snow Depth

Station Depth Elevation

Earthquake Activity

City Distance Mag. Time & Date
Minimum magnitude displayed is 2.5.

Coastal Water Temperatures

Place Temperature

Stations

Nearby Weather Stations

Station Location Temp. Windchill Dew Point Humidity Wind Precip. Elev Updated Type